カンクン の空港の天気 - METARとTAF

カンクン国際空港 ( MMUN / CUN ) - メキシコ キンタナ・ロー州カンクン
飛行場実況気象(Metar)
観測時間10/16 00:50 CDT (10/16 05:50 UTC)
風向・風速東南東 4m/s
視程10km以上
天気現象
全天の4割程度の雲 雲底高度 460m
全天の8割程度の雲 雲底高度 3050m
気温28℃
湿度89%
気圧1013.2hPa
METARMMUN 160550Z 11008KT 7SM SCT015TCU BKN100 28/26 A2992 RMK SLP132 53008 952 60005 8/270 RAB40E49
過去の天気等 Google飛行場航空写真 Wunderground天気予報

過去48時間のMETAR

飛行場予報(TAF)
発表時間: 10/16 00:11 CDT (10/16 05:11 UTC)
予報対象時間: 16日1時 CDT ~ 17日7時 CDT
風向・風速東 4m/s
視程10km以上
全天の4割程度の雲 雲底高度 460m
全天の8割程度の雲 雲底高度 3050m
16日1時 CDT ~ 16日5時 CDT に一時的に
視程10km以上
天気現象弱い雨
16日13時 CDT から
風向・風速東 6m/s
視程10km以上
全天の8割程度の雲 雲底高度 460m
全天を覆う雲 雲底高度 2740m
16日16時 CDT ~ 16日18時 CDT に徐々に
視程8050m
天気現象弱い雨
16日18時 CDT から 確率 40% で
視程6440m
天気現象雷雨
全天の8割程度の積乱雲 雲底高度 460m
17日3時 CDT から
風向・風速東南東 6m/s
視程10km以上
天気現象煙霧
全天の4割程度の雲 雲底高度 460m
全天の4割程度の雲 雲底高度 2740m
全天の8割程度の雲 雲底高度 7320m
TAF MMUN 160511Z 1606/1712 08007KT P6SM SCT015 BKN100 TX30/1619Z TN27/1612Z
TEMPO 1606/1610 6SM -RA
FM161800 08012KT P6SM BKN015 OVC090
BECMG 1621/1623 5SM -RA
PROB40 1623/1703 4SM TSRA BKN015CB
FM170800 12012KT 6SM HZ SCT015 SCT090 BKN240